createdAt,value
2018-08-13T00:01:13.555Z,99.90
2018-08-13T00:03:42.120Z,99.90
2018-08-13T00:06:10.955Z,99.90
2018-08-13T00:08:39.703Z,99.90
2018-08-13T00:11:08.851Z,99.90
2018-08-13T00:13:37.385Z,99.90
2018-08-13T00:16:06.094Z,99.90
2018-08-13T00:18:34.899Z,99.90
2018-08-13T00:21:03.765Z,99.90
2018-08-13T00:23:32.299Z,99.90
2018-08-13T00:26:00.955Z,99.90
2018-08-13T00:28:29.829Z,99.90
2018-08-13T00:30:58.425Z,99.90
2018-08-13T00:33:27.273Z,99.90
2018-08-13T00:35:56.144Z,99.90
2018-08-13T00:38:24.839Z,99.90
2018-08-13T00:40:53.435Z,99.90
2018-08-13T00:43:22.345Z,99.90
2018-08-13T00:45:50.971Z,99.90
2018-08-13T00:48:19.540Z,99.90
2018-08-13T00:50:48.057Z,99.90
2018-08-13T00:53:16.723Z,99.90
2018-08-13T00:55:45.295Z,99.90
2018-08-13T00:58:14.291Z,99.90
2018-08-13T01:00:42.843Z,99.90
2018-08-13T01:03:11.372Z,99.90
2018-08-13T01:05:39.975Z,99.90
2018-08-13T01:08:08.544Z,99.90
2018-08-13T01:10:37.129Z,99.90
2018-08-13T01:13:06.138Z,99.90
2018-08-13T01:15:34.770Z,99.90
2018-08-13T01:18:03.386Z,99.90
2018-08-13T01:20:31.937Z,99.90
2018-08-13T01:23:00.459Z,99.90
2018-08-13T01:25:29.461Z,99.90
2018-08-13T01:27:58.028Z,99.90
2018-08-13T01:30:26.616Z,99.90
2018-08-13T01:32:55.375Z,99.90
2018-08-13T01:35:24.072Z,99.90
2018-08-13T01:37:52.813Z,99.90
2018-08-13T01:40:21.783Z,99.90
2018-08-13T01:42:50.394Z,99.90
2018-08-13T01:45:19.065Z,99.90
2018-08-13T01:47:47.637Z,99.90
2018-08-13T01:50:16.400Z,99.90
2018-08-13T01:52:45.015Z,99.90
2018-08-13T01:55:13.811Z,99.90
2018-08-13T01:57:42.639Z,99.90
2018-08-13T02:00:17.869Z,99.90
2018-08-13T02:02:46.506Z,99.90
2018-08-13T02:05:15.247Z,99.90
2018-08-13T02:07:44.056Z,99.90
2018-08-13T02:10:13.641Z,99.90
2018-08-13T02:12:42.683Z,99.90
2018-08-13T02:15:11.216Z,99.90
2018-08-13T02:17:39.783Z,99.90
2018-08-13T02:20:09.482Z,99.90
2018-08-13T02:22:38.448Z,99.90
2018-08-13T02:25:07.910Z,99.90
2018-08-13T02:27:36.597Z,99.90
2018-08-13T02:30:08.155Z,99.90
2018-08-13T02:32:36.664Z,99.90
2018-08-13T02:35:06.094Z,99.90
2018-08-13T02:37:34.603Z,99.90
2018-08-13T02:40:03.203Z,99.90
2018-08-13T02:42:31.749Z,99.90
2018-08-13T02:45:00.370Z,99.90
2018-08-13T02:47:28.872Z,99.90
2018-08-13T02:49:57.593Z,99.90
2018-08-13T02:52:26.165Z,99.90
2018-08-13T02:54:54.862Z,99.90
2018-08-13T02:57:23.654Z,99.90
2018-08-13T02:59:52.748Z,99.90
2018-08-13T03:02:21.286Z,99.90
2018-08-13T03:04:50.106Z,99.90
2018-08-13T03:07:18.576Z,99.90
2018-08-13T03:09:47.296Z,99.90
2018-08-13T03:12:15.832Z,99.90
2018-08-13T03:14:44.371Z,99.90
2018-08-13T03:17:12.974Z,99.90
2018-08-13T03:19:41.540Z,99.90
2018-08-13T03:22:10.037Z,99.90
2018-08-13T03:24:38.687Z,99.90
2018-08-13T03:27:07.471Z,99.90
2018-08-13T03:29:36.107Z,99.90
2018-08-13T03:32:04.746Z,99.90
2018-08-13T03:34:33.397Z,99.90
2018-08-13T03:37:01.945Z,99.90
2018-08-13T03:39:30.494Z,99.90
2018-08-13T03:41:59.194Z,99.90
2018-08-13T03:44:27.838Z,99.90
2018-08-13T03:46:56.539Z,99.90
2018-08-13T03:49:25.101Z,99.90
2018-08-13T03:51:53.613Z,99.90
2018-08-13T03:54:22.330Z,99.90
2018-08-13T03:56:51.110Z,99.90
2018-08-13T03:59:19.685Z,99.90
2018-08-13T04:01:48.304Z,99.90
2018-08-13T04:04:16.873Z,99.90
2018-08-13T04:06:45.385Z,99.90
2018-08-13T04:09:14.068Z,99.90
2018-08-13T04:11:42.764Z,99.90
2018-08-13T04:14:11.322Z,99.90
2018-08-13T04:16:40.254Z,99.90
2018-08-13T04:19:09.643Z,99.90
2018-08-13T04:21:38.150Z,99.90
2018-08-13T04:24:06.764Z,99.90
2018-08-13T04:26:35.305Z,99.90
2018-08-13T04:29:03.882Z,99.90
2018-08-13T04:31:32.397Z,99.90
2018-08-13T04:34:01.181Z,99.90
2018-08-13T04:36:29.739Z,99.90
2018-08-13T04:38:58.263Z,99.90
2018-08-13T04:41:26.806Z,99.90
2018-08-13T04:43:55.491Z,99.90
2018-08-13T04:46:24.351Z,99.90
2018-08-13T04:48:53.218Z,99.90
2018-08-13T04:51:22.018Z,99.90
2018-08-13T04:53:50.559Z,99.90
2018-08-13T04:56:19.381Z,99.90
2018-08-13T04:58:47.977Z,99.90
2018-08-13T05:01:16.683Z,99.90
2018-08-13T05:03:45.577Z,99.90
2018-08-13T05:06:14.341Z,99.90
2018-08-13T05:08:43.250Z,99.90
2018-08-13T05:11:12.098Z,99.90
2018-08-13T05:13:40.950Z,99.90
2018-08-13T05:16:09.538Z,99.90
2018-08-13T05:18:38.386Z,99.90
2018-08-13T05:21:07.326Z,99.90
2018-08-13T05:23:35.918Z,99.90
2018-08-13T05:26:04.541Z,99.90
2018-08-13T05:28:33.082Z,99.90
2018-08-13T05:31:01.724Z,99.90
2018-08-13T05:33:30.555Z,99.90
2018-08-13T05:35:59.413Z,99.90
2018-08-13T05:38:27.931Z,99.90
2018-08-13T05:40:56.468Z,99.90
2018-08-13T05:43:25.273Z,99.90
2018-08-13T05:45:54.011Z,99.90
2018-08-13T05:48:22.645Z,99.90
2018-08-13T05:50:51.179Z,99.90
2018-08-13T05:53:19.783Z,99.90
2018-08-13T05:55:48.312Z,99.90
2018-08-13T05:58:16.921Z,99.90
2018-08-13T06:00:45.459Z,99.90
2018-08-13T06:03:14.194Z,99.90
2018-08-13T06:05:42.871Z,99.90
2018-08-13T06:08:11.566Z,99.90
2018-08-13T06:10:40.133Z,99.90
2018-08-13T06:13:08.900Z,99.90
2018-08-13T06:15:37.463Z,99.90
2018-08-13T06:18:06.595Z,99.90
2018-08-13T06:20:35.442Z,99.90
2018-08-13T06:23:04.060Z,99.90
2018-08-13T06:25:32.618Z,99.90
2018-08-13T06:28:01.433Z,99.90
2018-08-13T06:30:30.018Z,99.90
2018-08-13T06:32:58.620Z,99.90
2018-08-13T06:35:27.305Z,99.90
2018-08-13T06:37:55.932Z,99.90
2018-08-13T06:40:24.775Z,99.90
2018-08-13T06:42:53.313Z,99.90
2018-08-13T06:45:22.665Z,99.90
2018-08-13T06:47:51.256Z,99.90
2018-08-13T06:50:19.819Z,99.90
2018-08-13T06:52:48.425Z,99.90
2018-08-13T06:55:17.284Z,99.90
2018-08-13T06:57:45.945Z,99.90
2018-08-13T07:00:15.069Z,99.90
2018-08-13T07:02:43.840Z,99.90
2018-08-13T07:05:12.423Z,99.90
2018-08-13T07:07:41.744Z,99.90
2018-08-13T07:10:11.810Z,99.90
2018-08-13T07:12:42.249Z,99.90
2018-08-13T07:15:11.375Z,99.90
2018-08-13T07:17:39.943Z,99.90
2018-08-13T07:20:12.680Z,99.90
2018-08-13T07:22:41.773Z,99.90
2018-08-13T07:25:10.534Z,99.90
2018-08-13T07:27:40.122Z,99.90
2018-08-13T07:30:11.008Z,99.90
2018-08-13T07:32:40.028Z,99.90
2018-08-13T07:35:09.147Z,99.90
2018-08-13T07:37:37.934Z,99.90
2018-08-13T07:40:09.294Z,99.90
2018-08-13T07:42:38.185Z,99.90
2018-08-13T07:45:07.661Z,99.90
2018-08-13T07:47:36.455Z,99.90
2018-08-13T07:50:06.313Z,99.90
2018-08-13T07:52:34.866Z,99.90
2018-08-13T07:55:03.420Z,99.90
2018-08-13T07:57:32.376Z,99.90
2018-08-13T08:00:01.279Z,99.90
2018-08-13T08:02:30.183Z,99.90
2018-08-13T08:04:59.059Z,99.90
2018-08-13T08:07:28.293Z,99.90
2018-08-13T08:09:56.970Z,99.90
2018-08-13T08:12:26.145Z,99.90
2018-08-13T08:14:54.814Z,99.90
2018-08-13T08:17:23.809Z,99.90
2018-08-13T08:19:52.505Z,99.90
2018-08-13T08:22:21.071Z,99.90
2018-08-13T08:24:49.552Z,99.90
2018-08-13T08:27:18.253Z,99.90
2018-08-13T08:29:46.999Z,99.90
2018-08-13T08:32:15.587Z,99.90
2018-08-13T08:34:44.405Z,99.90
2018-08-13T08:37:13.120Z,99.90
2018-08-13T08:39:41.951Z,99.90
2018-08-13T08:42:10.503Z,99.90
2018-08-13T08:44:39.295Z,99.90
2018-08-13T08:47:08.119Z,99.90
2018-08-13T08:49:36.778Z,99.90
2018-08-13T08:52:05.409Z,99.90
2018-08-13T08:54:34.461Z,99.90
2018-08-13T08:57:03.072Z,99.90
2018-08-13T08:59:31.768Z,99.90
2018-08-13T09:02:00.542Z,99.90
2018-08-13T09:04:29.381Z,99.90
2018-08-13T09:06:57.985Z,99.90
2018-08-13T09:09:27.045Z,99.90
2018-08-13T09:11:56.306Z,99.90
2018-08-13T09:14:25.149Z,99.90
2018-08-13T09:16:54.225Z,99.90
2018-08-13T09:19:34.096Z,99.90
2018-08-13T09:22:13.706Z,99.90
2018-08-13T09:24:53.619Z,99.90
2018-08-13T09:27:33.514Z,99.90
2018-08-13T09:30:13.700Z,99.90
2018-08-13T09:32:53.511Z,99.90
2018-08-13T09:35:26.956Z,99.90
2018-08-13T09:37:56.339Z,99.90
2018-08-13T09:40:25.760Z,99.90
2018-08-13T09:42:55.068Z,99.90
2018-08-13T09:45:23.911Z,99.90
2018-08-13T09:47:52.736Z,99.90
2018-08-13T09:50:21.794Z,99.90
2018-08-13T09:52:51.095Z,99.90
2018-08-13T09:55:20.689Z,99.90
2018-08-13T09:57:50.076Z,99.90
2018-08-13T10:00:25.266Z,99.90
2018-08-13T10:02:54.145Z,99.90
2018-08-13T10:05:23.139Z,99.90
2018-08-13T10:07:52.241Z,99.90
2018-08-13T10:10:20.898Z,99.90
2018-08-13T10:12:49.581Z,99.90
2018-08-13T10:15:18.464Z,99.90
2018-08-13T10:17:47.129Z,99.90
2018-08-13T10:20:17.909Z,99.90
2018-08-13T10:22:46.897Z,99.90
2018-08-13T10:25:15.838Z,99.90
2018-08-13T10:27:44.665Z,99.90
2018-08-13T10:30:14.523Z,99.90
2018-08-13T10:32:43.548Z,99.90
2018-08-13T10:35:12.463Z,99.90
2018-08-13T10:37:41.681Z,99.90
2018-08-13T10:40:15.412Z,99.90
2018-08-13T10:42:44.292Z,99.90
2018-08-13T10:45:13.137Z,99.90
2018-08-13T10:47:41.885Z,99.90
2018-08-13T10:50:12.030Z,99.90
2018-08-13T10:52:41.105Z,99.90
2018-08-13T10:55:11.654Z,99.90
2018-08-13T10:57:40.630Z,99.90
2018-08-13T11:00:11.375Z,99.90
2018-08-13T11:02:40.561Z,99.90
2018-08-13T11:05:10.827Z,99.90
2018-08-13T11:07:39.735Z,99.90
2018-08-13T11:10:10.537Z,99.90
2018-08-13T11:12:39.294Z,99.90
2018-08-13T11:15:15.841Z,99.90
2018-08-13T11:17:44.517Z,99.90
2018-08-13T11:20:13.474Z,99.90
2018-08-13T11:22:42.553Z,99.90
2018-08-13T11:25:13.020Z,99.90
2018-08-13T11:27:42.127Z,99.90
2018-08-13T11:30:12.754Z,99.90
2018-08-13T11:32:41.687Z,99.90
2018-08-13T11:35:10.599Z,99.90
2018-08-13T11:37:39.335Z,99.90
2018-08-13T11:40:12.601Z,99.90
2018-08-13T11:42:41.514Z,99.90
2018-08-13T11:45:10.466Z,99.90
2018-08-13T11:47:39.658Z,99.90
2018-08-13T11:50:13.543Z,99.90
2018-08-13T11:52:42.777Z,99.90
2018-08-13T11:55:11.354Z,99.90
2018-08-13T11:57:40.279Z,99.90
2018-08-13T12:00:11.118Z,99.90
2018-08-13T12:02:40.998Z,99.90
2018-08-13T12:05:11.893Z,99.90
2018-08-13T12:07:40.744Z,99.90
2018-08-13T12:10:10.671Z,99.90
2018-08-13T12:12:39.998Z,99.90
2018-08-13T12:15:09.804Z,99.90
2018-08-13T12:17:38.771Z,99.90
2018-08-13T12:20:09.789Z,99.90
2018-08-13T12:22:38.572Z,99.90
2018-08-13T12:25:08.324Z,99.90
2018-08-13T12:27:37.069Z,99.90
2018-08-13T12:30:08.227Z,99.90
2018-08-13T12:32:36.844Z,99.90
2018-08-13T12:35:06.207Z,99.90
2018-08-13T12:37:35.068Z,99.90
2018-08-13T12:40:04.929Z,99.90
2018-08-13T12:42:33.827Z,99.90
2018-08-13T12:45:02.466Z,99.90
2018-08-13T12:47:31.370Z,99.90
2018-08-13T12:50:00.234Z,99.90
2018-08-13T12:52:29.141Z,99.90
2018-08-13T12:54:57.952Z,99.90
2018-08-13T12:57:26.752Z,99.90
2018-08-13T12:59:55.470Z,99.90
2018-08-13T13:04:23.645Z,99.90
2018-08-13T13:06:52.236Z,99.90
2018-08-13T13:09:21.278Z,99.90
2018-08-13T13:11:50.231Z,99.90
2018-08-13T13:14:18.849Z,99.90
2018-08-13T13:16:47.385Z,99.90
2018-08-13T13:19:16.113Z,99.90
2018-08-13T13:21:44.809Z,99.90
2018-08-13T13:24:13.462Z,99.90
2018-08-13T13:26:42.386Z,99.90
2018-08-13T13:29:11.314Z,99.90
2018-08-13T13:31:40.299Z,99.90
2018-08-13T13:34:09.148Z,99.90
2018-08-13T13:36:37.785Z,99.90
2018-08-13T13:39:08.156Z,99.90
2018-08-13T13:41:36.805Z,99.90
2018-08-13T13:44:05.836Z,99.90
2018-08-13T13:46:34.518Z,99.90
2018-08-13T13:49:03.348Z,99.90
2018-08-13T13:51:32.074Z,99.90
2018-08-13T13:54:00.618Z,99.90
2018-08-13T13:56:29.304Z,99.90
2018-08-13T13:58:58.030Z,99.90
2018-08-13T14:01:26.741Z,99.90
2018-08-13T14:03:55.664Z,97.70
2018-08-13T14:06:24.316Z,96.90
2018-08-13T14:08:53.419Z,95.10
2018-08-13T14:11:22.520Z,93.70
2018-08-13T14:13:51.072Z,95.20
2018-08-13T14:16:19.674Z,95.80
2018-08-13T14:18:48.420Z,96.80
2018-08-13T14:21:17.147Z,95.40
2018-08-13T14:23:45.750Z,94.80
2018-08-13T14:26:14.335Z,92.40
2018-08-13T14:28:42.945Z,92.30
2018-08-13T14:31:12.043Z,90.80
2018-08-13T14:33:40.992Z,92.10
2018-08-13T14:36:10.049Z,94.80
2018-08-13T14:38:38.680Z,96.00
2018-08-13T14:41:07.592Z,98.10
2018-08-13T14:43:36.198Z,99.30
2018-08-13T14:46:05.094Z,99.80
2018-08-13T14:48:33.795Z,99.90
2018-08-13T14:51:02.625Z,99.90
2018-08-13T14:53:31.126Z,99.90
2018-08-13T14:55:59.687Z,99.90
2018-08-13T14:58:28.353Z,99.90
2018-08-13T15:00:56.950Z,99.90
2018-08-13T15:03:25.813Z,99.90
2018-08-13T15:05:54.389Z,99.90
2018-08-13T15:08:23.262Z,99.90
2018-08-13T15:10:52.021Z,99.90
2018-08-13T15:13:21.128Z,99.90
2018-08-13T15:15:50.441Z,99.90
2018-08-13T15:18:19.537Z,99.90
2018-08-13T15:20:48.439Z,99.90
2018-08-13T15:23:17.412Z,99.90
2018-08-13T15:25:46.293Z,99.90
2018-08-13T15:28:14.958Z,99.90
2018-08-13T15:30:43.781Z,99.90
2018-08-13T15:33:12.523Z,99.90
2018-08-13T15:35:41.120Z,99.90
2018-08-13T15:38:10.067Z,99.90
2018-08-13T15:40:38.970Z,99.90
2018-08-13T15:43:07.649Z,99.90
2018-08-13T15:45:36.206Z,99.90
2018-08-13T15:48:05.221Z,99.90
2018-08-13T15:50:33.828Z,99.90
2018-08-13T15:53:02.419Z,99.90
2018-08-13T15:55:31.188Z,99.90
2018-08-13T15:58:00.204Z,99.90
2018-08-13T16:00:28.961Z,98.90
2018-08-13T16:02:57.784Z,96.60
2018-08-13T16:05:26.479Z,95.90
2018-08-13T16:07:55.127Z,98.80
2018-08-13T16:10:24.028Z,99.50
2018-08-13T16:12:55.235Z,99.90
2018-08-13T16:15:24.688Z,99.90
2018-08-13T16:17:53.554Z,99.90
2018-08-13T16:20:22.468Z,99.90
2018-08-13T16:22:51.491Z,99.90
2018-08-13T16:25:20.418Z,99.90
2018-08-13T16:27:49.078Z,99.90
2018-08-13T16:30:21.588Z,99.90
2018-08-13T16:32:50.502Z,99.90
2018-08-13T16:35:19.825Z,99.90
2018-08-13T16:37:48.757Z,99.90
2018-08-13T16:40:18.338Z,99.90
2018-08-13T16:42:47.516Z,99.90
2018-08-13T16:45:17.500Z,99.90
2018-08-13T16:47:46.602Z,99.90
2018-08-13T16:50:20.013Z,99.90
2018-08-13T16:52:48.954Z,99.90
2018-08-13T16:55:17.655Z,99.90
2018-08-13T16:57:46.788Z,99.90
2018-08-13T17:00:17.750Z,99.90
2018-08-13T17:02:46.609Z,99.90
2018-08-13T17:05:15.386Z,99.90
2018-08-13T17:07:44.530Z,99.90
2018-08-13T17:10:24.379Z,99.90
2018-08-13T17:12:53.821Z,99.90
2018-08-13T17:15:23.209Z,99.90
2018-08-13T17:17:53.549Z,99.90
2018-08-13T17:20:27.319Z,99.90
2018-08-13T17:22:56.393Z,99.90
2018-08-13T17:25:25.260Z,99.90
2018-08-13T17:27:54.228Z,99.90
2018-08-13T17:30:24.427Z,99.90
2018-08-13T17:32:54.394Z,99.90
2018-08-13T17:35:25.416Z,99.90
2018-08-13T17:37:54.390Z,99.90
2018-08-13T17:40:24.265Z,99.90
2018-08-13T17:42:54.208Z,99.90
2018-08-13T17:45:23.445Z,99.90
2018-08-13T17:47:52.309Z,99.90
2018-08-13T17:50:22.137Z,99.90
2018-08-13T17:52:51.000Z,99.90
2018-08-13T17:55:19.927Z,99.90
2018-08-13T17:57:48.928Z,99.90
2018-08-13T18:00:22.407Z,99.90
2018-08-13T18:02:51.242Z,99.90
2018-08-13T18:05:22.016Z,99.90
2018-08-13T18:07:51.390Z,99.90
2018-08-13T18:10:22.501Z,99.90
2018-08-13T18:12:51.387Z,99.90
2018-08-13T18:15:20.512Z,99.90
2018-08-13T18:17:49.406Z,99.90
2018-08-13T18:20:18.497Z,99.90
2018-08-13T18:22:47.345Z,99.90
2018-08-13T18:25:16.977Z,99.90
2018-08-13T18:27:47.117Z,99.90
2018-08-13T18:30:18.721Z,99.90
2018-08-13T18:32:47.845Z,99.90
2018-08-13T18:35:17.105Z,99.90
2018-08-13T18:37:46.159Z,99.90
2018-08-13T18:40:21.193Z,99.90
2018-08-13T18:42:50.327Z,99.90
2018-08-13T18:45:19.271Z,99.90
2018-08-13T18:47:48.763Z,99.90
2018-08-13T18:50:18.696Z,99.90
2018-08-13T18:52:47.886Z,99.90
2018-08-13T18:55:17.841Z,99.90
2018-08-13T18:57:46.878Z,99.90
2018-08-13T19:00:18.134Z,99.90
2018-08-13T19:02:47.457Z,99.90
2018-08-13T19:05:17.562Z,99.90
2018-08-13T19:07:46.880Z,99.90
2018-08-13T19:10:16.743Z,99.90
2018-08-13T19:12:45.570Z,99.90
2018-08-13T19:15:17.394Z,99.90
2018-08-13T19:17:46.536Z,99.90
2018-08-13T19:20:16.080Z,99.90
2018-08-13T19:22:45.018Z,99.90
2018-08-13T19:25:17.376Z,99.90
2018-08-13T19:27:46.263Z,99.90
2018-08-13T19:30:16.785Z,99.90
2018-08-13T19:32:47.010Z,99.90
2018-08-13T19:35:16.019Z,99.90
2018-08-13T19:37:45.117Z,99.90
2018-08-13T19:40:16.180Z,99.90
2018-08-13T19:42:46.013Z,99.90
2018-08-13T19:45:15.756Z,99.90
2018-08-13T19:47:45.094Z,99.90
2018-08-13T19:50:14.639Z,99.90
2018-08-13T19:52:44.423Z,99.90
2018-08-13T19:55:13.700Z,99.90
2018-08-13T19:57:42.534Z,99.90
2018-08-13T20:00:13.847Z,99.90
2018-08-13T20:02:43.018Z,99.90
2018-08-13T20:05:11.823Z,99.90
2018-08-13T20:07:40.797Z,99.90
2018-08-13T20:10:11.776Z,99.90
2018-08-13T20:12:40.737Z,99.90
2018-08-13T20:15:10.025Z,99.90
2018-08-13T20:17:39.004Z,99.90
2018-08-13T20:20:11.696Z,99.90
2018-08-13T20:22:40.894Z,99.90
2018-08-13T20:25:11.495Z,99.90
2018-08-13T20:27:40.659Z,99.90
2018-08-13T20:30:12.965Z,99.90
2018-08-13T20:32:42.191Z,99.90
2018-08-13T20:35:10.882Z,99.90
2018-08-13T20:37:39.983Z,99.90
2018-08-13T20:40:12.102Z,99.90
2018-08-13T20:42:41.483Z,99.90
2018-08-13T20:45:12.896Z,99.90
2018-08-13T20:47:41.927Z,99.90
2018-08-13T20:50:18.987Z,99.90
2018-08-13T20:52:48.772Z,99.90
2018-08-13T20:55:20.324Z,99.90
2018-08-13T20:57:49.591Z,99.90
2018-08-13T21:00:20.292Z,99.90
2018-08-13T21:02:49.120Z,99.90
2018-08-13T21:05:18.238Z,99.90
2018-08-13T21:07:47.982Z,99.90
2018-08-13T21:10:18.755Z,99.90
2018-08-13T21:12:47.600Z,99.90
2018-08-13T21:15:16.670Z,99.90
2018-08-13T21:17:45.389Z,99.90
2018-08-13T21:20:19.883Z,99.90
2018-08-13T21:22:48.649Z,99.90
2018-08-13T21:25:17.393Z,99.90
2018-08-13T21:27:46.330Z,99.90
2018-08-13T21:30:15.255Z,99.90
2018-08-13T21:32:44.465Z,99.90
2018-08-13T21:35:16.877Z,99.90
2018-08-13T21:37:46.109Z,99.90
2018-08-13T21:40:14.793Z,99.90
2018-08-13T21:42:43.929Z,99.90
2018-08-13T21:45:13.110Z,99.90
2018-08-13T21:47:42.069Z,99.90
2018-08-13T21:50:13.972Z,99.90
2018-08-13T21:52:42.561Z,99.90
2018-08-13T21:55:11.489Z,99.90
2018-08-13T21:57:40.183Z,99.90
2018-08-13T22:00:16.241Z,99.90
2018-08-13T22:02:45.051Z,99.90
2018-08-13T22:05:13.732Z,99.90
2018-08-13T22:07:42.370Z,99.90
2018-08-13T22:10:10.960Z,99.90
2018-08-13T22:12:39.734Z,99.90
2018-08-13T22:15:25.118Z,99.90
2018-08-13T22:17:54.753Z,99.90
2018-08-13T22:20:24.070Z,99.90
2018-08-13T22:22:52.707Z,99.90
2018-08-13T22:25:24.425Z,99.90
2018-08-13T22:27:53.318Z,99.90
2018-08-13T22:30:21.974Z,99.90
2018-08-13T22:32:50.685Z,99.90
2018-08-13T22:35:19.308Z,99.90
2018-08-13T22:37:48.240Z,99.90
2018-08-13T22:40:20.713Z,99.90
2018-08-13T22:42:49.295Z,99.90
2018-08-13T22:45:21.699Z,99.90
2018-08-13T22:47:50.332Z,99.90
2018-08-13T22:50:18.945Z,99.90
2018-08-13T22:52:47.646Z,99.90
2018-08-13T22:55:17.879Z,99.90
2018-08-13T22:57:46.757Z,99.90
2018-08-13T23:00:16.758Z,99.90
2018-08-13T23:02:46.087Z,99.90
2018-08-13T23:05:19.542Z,99.90
2018-08-13T23:07:48.290Z,99.90
2018-08-13T23:10:19.154Z,99.90
2018-08-13T23:12:49.105Z,99.90
2018-08-13T23:15:18.495Z,99.90
2018-08-13T23:17:47.581Z,99.90
2018-08-13T23:20:19.254Z,99.90
2018-08-13T23:22:49.960Z,99.90
2018-08-13T23:25:18.999Z,99.90
2018-08-13T23:27:48.908Z,99.90
2018-08-13T23:30:17.896Z,99.90
2018-08-13T23:32:48.522Z,99.90
2018-08-13T23:35:18.214Z,99.90
2018-08-13T23:37:46.985Z,99.90
2018-08-13T23:40:15.669Z,99.90
2018-08-13T23:42:44.193Z,99.90
2018-08-13T23:45:14.512Z,99.90
2018-08-13T23:47:43.284Z,99.90
2018-08-13T23:50:13.969Z,99.90
2018-08-13T23:52:42.721Z,99.90
2018-08-13T23:55:14.801Z,99.90
2018-08-13T23:57:43.514Z,99.90
